createdAt,value
2019-05-02T00:03:14.467Z,22.53
2019-05-02T00:08:18.316Z,21.60
2019-05-02T00:13:21.812Z,25.10
2019-05-02T00:18:25.892Z,20.70
2019-05-02T00:23:29.463Z,22.77
2019-05-02T00:28:32.983Z,20.50
2019-05-02T00:33:36.417Z,23.20
2019-05-02T00:38:39.968Z,26.47
2019-05-02T00:43:43.329Z,26.80
2019-05-02T00:48:54.254Z,18.20
2019-05-02T00:53:56.381Z,20.57
2019-05-02T00:59:02.363Z,23.97
2019-05-02T01:04:15.855Z,18.53
2019-05-02T01:09:19.259Z,22.57
2019-05-02T01:14:26.812Z,20.13
2019-05-02T01:19:27.809Z,19.77
2019-05-02T01:24:34.234Z,21.90
2019-05-02T01:29:37.996Z,19.03
2019-05-02T01:34:54.214Z,21.07
2019-05-02T01:39:54.038Z,19.00
2019-05-02T01:44:57.451Z,20.63
2019-05-02T01:50:00.882Z,21.17
2019-05-02T01:55:06.244Z,19.17
2019-05-02T02:00:11.733Z,21.73
2019-05-02T02:05:15.143Z,22.63
2019-05-02T02:10:19.871Z,20.90
2019-05-02T02:15:25.029Z,20.00
2019-05-02T02:20:30.976Z,24.83
2019-05-02T02:25:45.265Z,23.30
2019-05-02T02:30:48.698Z,24.00
2019-05-02T02:35:52.333Z,21.60
2019-05-02T02:40:55.896Z,21.47
2019-05-02T02:46:09.785Z,22.33
2019-05-02T02:51:22.574Z,21.73
2019-05-02T02:56:18.347Z,28.23
2019-05-02T03:01:28.833Z,29.00
2019-05-02T03:06:27.170Z,25.07
2019-05-02T03:11:32.408Z,26.40
2019-05-02T03:16:46.039Z,28.10
2019-05-02T03:22:01.133Z,25.97
2019-05-02T03:26:59.759Z,27.77
2019-05-02T03:32:15.134Z,29.83
2019-05-02T03:37:11.378Z,23.13
2019-05-02T03:42:13.655Z,33.00
2019-05-02T03:47:17.138Z,32.13
2019-05-02T03:52:20.565Z,28.97
2019-05-02T03:57:32.921Z,26.13
2019-05-02T04:02:29.465Z,29.80
2019-05-02T04:07:39.355Z,32.80
2019-05-02T04:12:38.328Z,33.17
2019-05-02T04:17:42.796Z,25.77
2019-05-02T04:22:48.951Z,29.33
2019-05-02T04:27:52.167Z,29.20
2019-05-02T04:32:56.164Z,27.20
2019-05-02T04:38:02.707Z,26.83
2019-05-02T04:43:10.993Z,24.47
2019-05-02T04:48:11.118Z,29.63
2019-05-02T04:53:14.565Z,34.17
2019-05-02T04:58:27.596Z,31.13
2019-05-02T05:03:23.124Z,34.27
2019-05-02T05:08:31.733Z,32.60
2019-05-02T05:13:31.714Z,36.80
2019-05-02T05:18:37.601Z,33.17
2019-05-02T05:23:41.948Z,29.83
2019-05-02T05:28:47.546Z,34.80
2019-05-02T05:33:50.579Z,36.83
2019-05-02T05:38:53.991Z,34.93
2019-05-02T05:43:57.564Z,32.67
2019-05-02T05:49:00.923Z,33.60
2019-05-02T05:54:04.634Z,43.37
2019-05-02T05:59:08.061Z,36.50
2019-05-02T06:04:13.864Z,39.87
2019-05-02T06:09:16.638Z,37.00
2019-05-02T06:14:24.780Z,42.67
2019-05-02T06:19:25.283Z,37.47
2019-05-02T06:24:28.728Z,41.40
2019-05-02T06:29:32.131Z,35.07
2019-05-02T06:34:38.734Z,35.40
2019-05-02T06:39:40.890Z,35.10
2019-05-02T06:44:44.337Z,40.17
2019-05-02T06:49:47.766Z,43.43
2019-05-02T06:54:54.111Z,41.07
2019-05-02T06:59:56.484Z,34.23
2019-05-02T07:05:01.131Z,39.53
2019-05-02T07:10:08.868Z,33.57
2019-05-02T07:15:14.575Z,36.93
2019-05-02T07:20:18.445Z,35.33
2019-05-02T07:25:21.880Z,36.20
2019-05-02T07:30:30.016Z,41.00
2019-05-02T07:35:30.916Z,36.87
2019-05-02T07:40:34.377Z,36.93
2019-05-02T07:45:40.207Z,40.50
2019-05-02T07:50:46.592Z,38.63
2019-05-02T07:55:49.292Z,38.47
2019-05-02T08:00:52.802Z,38.87
2019-05-02T08:05:58.659Z,39.17
2019-05-02T08:11:02.889Z,41.67
2019-05-02T08:16:06.491Z,39.37
2019-05-02T08:21:09.928Z,40.43
2019-05-02T08:26:16.476Z,45.07
2019-05-02T08:31:20.772Z,40.23
2019-05-02T08:36:23.642Z,43.33
2019-05-02T08:41:27.130Z,42.93
2019-05-02T08:46:30.563Z,42.40
2019-05-02T08:51:33.989Z,47.80
2019-05-02T08:56:37.415Z,40.70
2019-05-02T09:01:44.731Z,45.27
2019-05-02T09:06:46.143Z,45.53
2019-05-02T09:12:03.307Z,45.70
2019-05-02T09:16:54.772Z,48.03
2019-05-02T09:21:58.181Z,42.63
2019-05-02T09:27:02.489Z,41.77
2019-05-02T09:32:06.092Z,38.50
2019-05-02T09:37:12.006Z,38.20
2019-05-02T09:42:18.858Z,37.37
2019-05-02T09:47:27.239Z,35.90
2019-05-02T09:52:34.097Z,37.83
2019-05-02T09:57:34.621Z,34.83
2019-05-02T10:02:38.121Z,36.87
2019-05-02T10:07:42.007Z,40.50
2019-05-02T10:12:45.542Z,35.50
2019-05-02T10:17:48.972Z,40.10
2019-05-02T10:22:53.016Z,33.53
2019-05-02T10:27:56.615Z,37.43
2019-05-02T10:33:00.095Z,32.47
2019-05-02T10:38:03.517Z,35.30
2019-05-02T10:43:06.940Z,36.03
2019-05-02T10:48:22.845Z,32.37
2019-05-02T10:53:15.849Z,32.33
2019-05-02T10:58:26.257Z,21.50
2019-05-02T11:03:26.195Z,24.87
2019-05-02T11:08:31.705Z,23.83
2019-05-02T11:13:39.025Z,22.27
2019-05-02T11:18:52.262Z,26.80
2019-05-02T11:23:55.264Z,23.07
2019-05-02T11:28:58.865Z,28.13
2019-05-02T11:34:02.266Z,22.93
2019-05-02T11:39:16.829Z,21.63
2019-05-02T11:44:13.171Z,24.60
2019-05-02T11:49:16.592Z,21.17
2019-05-02T11:54:20.021Z,22.73
2019-05-02T11:59:27.983Z,21.13
2019-05-02T12:04:28.829Z,21.67
2019-05-02T12:09:32.254Z,18.60
2019-05-02T12:14:36.503Z,19.23
2019-05-02T12:19:39.975Z,16.93
2019-05-02T12:24:45.377Z,21.50
2019-05-02T12:29:50.185Z,17.73
2019-05-02T12:34:53.771Z,16.80
2019-05-02T12:39:57.198Z,17.27
2019-05-02T12:45:02.720Z,18.63
2019-05-02T12:50:06.722Z,19.87
2019-05-02T12:55:10.346Z,17.60
2019-05-02T13:00:18.497Z,19.27
2019-05-02T13:05:22.229Z,20.60
2019-05-02T13:10:45.431Z,17.10
2019-05-02T13:15:48.940Z,18.07
2019-05-02T13:20:52.872Z,23.27
2019-05-02T13:25:56.593Z,16.00
2019-05-02T13:31:17.714Z,16.87
2019-05-02T13:36:45.752Z,18.50
2019-05-02T13:41:49.520Z,17.27
2019-05-02T13:46:53.561Z,14.27
2019-05-02T13:51:57.171Z,13.20
2019-05-02T13:57:02.967Z,14.63
2019-05-02T14:02:07.341Z,16.97
2019-05-02T14:07:13.233Z,17.53
2019-05-02T14:12:17.643Z,18.93
2019-05-02T14:17:24.381Z,18.83
2019-05-02T14:22:29.473Z,19.07
2019-05-02T14:27:33.038Z,22.07
2019-05-02T14:32:36.475Z,21.50
2019-05-02T14:37:42.130Z,19.77
2019-05-02T14:42:45.658Z,22.23
2019-05-02T14:47:49.771Z,23.67
2019-05-02T14:52:55.937Z,25.77
2019-05-02T14:58:04.086Z,34.63
2019-05-02T15:03:06.061Z,34.57
2019-05-02T15:08:09.477Z,32.47
2019-05-02T15:13:12.911Z,41.27
2019-05-02T15:18:17.622Z,37.53
2019-05-02T15:23:22.720Z,34.90
2019-05-02T15:28:31.948Z,38.30
2019-05-02T15:33:32.184Z,39.60
2019-05-02T15:38:37.143Z,39.97
2019-05-02T15:43:44.208Z,39.23
2019-05-02T15:48:46.807Z,45.37
2019-05-02T15:54:05.377Z,47.00
2019-05-02T15:59:04.759Z,39.33
2019-05-02T16:04:06.784Z,41.10
2019-05-02T16:09:11.864Z,46.30
2019-05-02T16:14:15.415Z,41.07
2019-05-02T16:19:24.671Z,40.47
2019-05-02T16:24:25.464Z,44.83
2019-05-02T16:29:29.234Z,40.20
2019-05-02T16:34:35.303Z,39.63
2019-05-02T16:39:42.595Z,40.00
2019-05-02T16:44:43.160Z,40.90
2019-05-02T16:49:47.936Z,54.53
2019-05-02T16:54:52.638Z,44.10
2019-05-02T17:00:01.324Z,32.80
2019-05-02T17:05:08.267Z,31.80
2019-05-02T17:10:14.813Z,30.70
2019-05-02T17:15:31.277Z,25.07
2019-05-02T17:20:33.398Z,28.07
2019-05-02T17:25:36.838Z,28.63
2019-05-02T17:30:41.107Z,27.87
2019-05-02T17:35:49.478Z,25.00
2019-05-02T17:40:54.122Z,18.97
2019-05-02T17:45:56.406Z,22.53
2019-05-02T17:51:04.408Z,19.63
2019-05-02T17:56:14.661Z,17.47
2019-05-02T18:01:14.715Z,17.70
2019-05-02T18:06:30.108Z,17.53
2019-05-02T18:11:23.505Z,15.70
2019-05-02T18:16:27.002Z,17.77
2019-05-02T18:21:32.324Z,14.97
2019-05-02T18:26:35.981Z,17.53
2019-05-02T18:31:43.431Z,15.10
2019-05-02T18:36:44.717Z,18.20
2019-05-02T18:41:48.355Z,15.40
2019-05-02T18:46:51.985Z,15.07
2019-05-02T18:51:57.363Z,17.17
2019-05-02T18:57:02.480Z,17.73
2019-05-02T19:02:05.964Z,23.37
2019-05-02T19:07:12.923Z,22.93
2019-05-02T19:12:22.389Z,22.93
2019-05-02T19:17:21.829Z,22.77
2019-05-02T19:22:25.309Z,23.13
2019-05-02T19:27:46.627Z,22.57
2019-05-02T19:32:50.192Z,28.70
2019-05-02T19:37:55.085Z,26.83
2019-05-02T19:43:03.374Z,25.93
2019-05-02T19:48:04.120Z,28.30
2019-05-02T19:53:14.818Z,28.87
2019-05-02T19:58:13.222Z,24.17
2019-05-02T20:03:21.568Z,25.83
2019-05-02T20:08:24.528Z,21.80
2019-05-02T20:13:29.651Z,26.23
2019-05-02T20:18:34.971Z,23.93
2019-05-02T20:23:37.899Z,22.50
2019-05-02T20:28:42.921Z,23.37
2019-05-02T20:33:46.347Z,19.80
2019-05-02T20:38:49.820Z,20.97
2019-05-02T20:43:53.284Z,16.63
2019-05-02T20:48:56.823Z,12.87
2019-05-02T20:54:01.988Z,16.57
2019-05-02T20:59:05.704Z,10.90
2019-05-02T21:04:09.176Z,12.53
2019-05-02T21:09:22.091Z,12.77
2019-05-02T21:14:25.227Z,8.93
2019-05-02T21:19:28.717Z,7.00
2019-05-02T21:24:32.736Z,10.07
2019-05-02T21:29:36.270Z,6.90
2019-05-02T21:34:42.337Z,6.80
2019-05-02T21:39:45.364Z,6.03
2019-05-02T21:44:48.790Z,6.00
2019-05-02T21:49:56.609Z,6.43
2019-05-02T21:55:01.959Z,9.77
2019-05-02T22:00:16.128Z,5.20
2019-05-02T22:05:22.868Z,7.20
2019-05-02T22:10:26.256Z,7.10
2019-05-02T22:15:29.691Z,8.37
2019-05-02T22:20:33.118Z,7.63
2019-05-02T22:25:36.715Z,9.73
2019-05-02T22:30:40.306Z,11.20
2019-05-02T22:35:44.070Z,7.83
2019-05-02T22:40:49.124Z,7.63
2019-05-02T22:45:52.538Z,11.00
2019-05-02T22:50:55.934Z,7.70
2019-05-02T22:55:59.396Z,7.23
2019-05-02T23:01:04.130Z,4.93
2019-05-02T23:06:07.559Z,7.57
2019-05-02T23:11:12.863Z,7.47
2019-05-02T23:16:16.232Z,7.23
2019-05-02T23:21:21.705Z,6.70
2019-05-02T23:26:38.730Z,8.53
2019-05-02T23:31:42.335Z,4.93
2019-05-02T23:36:45.787Z,6.97
2019-05-02T23:41:49.228Z,5.90
2019-05-02T23:46:52.667Z,6.67
2019-05-02T23:51:56.113Z,5.40
2019-05-02T23:56:59.614Z,10.77
